createdAt,value
2018-11-03T00:00:52.209Z,7.28
2018-11-03T00:03:19.529Z,7.24
2018-11-03T00:05:46.869Z,7.26
2018-11-03T00:08:14.044Z,7.29
2018-11-03T00:10:41.249Z,7.19
2018-11-03T00:13:08.524Z,7.13
2018-11-03T00:15:36.209Z,7.11
2018-11-03T00:18:04.230Z,7.13
2018-11-03T00:20:31.453Z,7.10
2018-11-03T00:22:58.635Z,7.08
2018-11-03T00:25:26.009Z,7.09
2018-11-03T00:27:53.213Z,7.11
2018-11-03T00:30:20.884Z,7.10
2018-11-03T00:32:48.520Z,7.00
2018-11-03T00:35:15.766Z,7.11
2018-11-03T00:37:42.931Z,7.03
2018-11-03T00:40:12.317Z,6.99
2018-11-03T00:42:39.547Z,7.01
2018-11-03T00:45:07.912Z,7.01
2018-11-03T00:47:35.149Z,7.07
2018-11-03T00:50:02.331Z,7.13
2018-11-03T00:52:29.525Z,7.12
2018-11-03T00:54:56.924Z,7.09
2018-11-03T00:57:24.098Z,7.15
2018-11-03T00:59:51.328Z,7.09
2018-11-03T01:02:18.553Z,7.00
2018-11-03T01:04:45.724Z,6.98
2018-11-03T01:07:12.976Z,7.01
2018-11-03T01:09:40.237Z,7.10
2018-11-03T01:12:07.408Z,7.10
2018-11-03T01:14:34.581Z,7.05
2018-11-03T01:17:01.818Z,7.00
2018-11-03T01:19:28.960Z,7.04
2018-11-03T01:21:56.155Z,7.04
2018-11-03T01:24:23.346Z,7.02
2018-11-03T01:26:50.548Z,7.09
2018-11-03T01:29:17.700Z,7.04
2018-11-03T01:31:44.915Z,6.98
2018-11-03T01:34:12.073Z,7.06
2018-11-03T01:36:39.240Z,7.04
2018-11-03T01:39:08.802Z,7.06
2018-11-03T01:41:35.980Z,7.05
2018-11-03T01:44:03.180Z,7.00
2018-11-03T01:46:30.407Z,7.00
2018-11-03T01:48:57.571Z,7.00
2018-11-03T01:51:24.742Z,7.02
2018-11-03T01:53:52.069Z,6.92
2018-11-03T01:56:19.256Z,6.90
2018-11-03T01:58:46.389Z,6.91
2018-11-03T02:01:13.664Z,6.90
2018-11-03T02:03:40.995Z,6.88
2018-11-03T02:06:08.197Z,6.88
2018-11-03T02:08:35.424Z,6.92
2018-11-03T02:11:02.596Z,6.93
2018-11-03T02:13:29.743Z,7.02
2018-11-03T02:15:56.978Z,6.98
2018-11-03T02:18:24.129Z,6.97
2018-11-03T02:20:51.299Z,6.96
2018-11-03T02:23:18.500Z,7.04
2018-11-03T02:25:45.659Z,7.02
2018-11-03T02:28:12.822Z,7.05
2018-11-03T02:30:40.064Z,7.07
2018-11-03T02:33:07.281Z,7.05
2018-11-03T02:35:34.436Z,7.07
2018-11-03T02:38:01.789Z,7.10
2018-11-03T02:40:28.960Z,7.09
2018-11-03T02:42:56.171Z,7.14
2018-11-03T02:45:23.405Z,7.12
2018-11-03T02:47:50.604Z,7.14
2018-11-03T02:50:21.826Z,7.15
2018-11-03T02:52:53.421Z,7.14
2018-11-03T02:55:23.644Z,7.19
2018-11-03T02:57:54.926Z,7.24
2018-11-03T03:00:23.412Z,7.19
2018-11-03T03:02:52.892Z,7.17
2018-11-03T03:05:24.548Z,7.23
2018-11-03T03:07:55.369Z,7.26
2018-11-03T03:10:25.576Z,7.21
2018-11-03T03:12:58.234Z,7.32
2018-11-03T03:15:28.570Z,7.32
2018-11-03T03:17:55.745Z,7.35
2018-11-03T03:20:22.936Z,7.38
2018-11-03T03:22:50.149Z,7.48
2018-11-03T03:25:17.297Z,7.49
2018-11-03T03:27:44.452Z,7.51
2018-11-03T03:30:11.767Z,7.48
2018-11-03T03:32:39.124Z,7.52
2018-11-03T03:35:06.405Z,7.66
2018-11-03T03:37:33.587Z,7.71
2018-11-03T03:40:00.744Z,7.62
2018-11-03T03:42:27.952Z,7.60
2018-11-03T03:44:55.141Z,7.60
2018-11-03T03:47:22.356Z,7.65
2018-11-03T03:49:49.527Z,7.60
2018-11-03T03:52:16.744Z,7.55
2018-11-03T03:54:44.718Z,7.67
2018-11-03T03:57:11.911Z,7.70
2018-11-03T03:59:39.132Z,7.62
2018-11-03T04:02:06.320Z,7.68
2018-11-03T04:04:33.479Z,7.60
2018-11-03T04:07:00.780Z,7.61
2018-11-03T04:09:27.939Z,7.56
2018-11-03T04:11:55.101Z,7.53
2018-11-03T04:14:22.383Z,7.47
2018-11-03T04:16:49.704Z,7.52
2018-11-03T04:19:16.896Z,7.53
2018-11-03T04:21:44.125Z,7.49
2018-11-03T04:24:11.303Z,7.46
2018-11-03T04:26:38.472Z,7.43
2018-11-03T04:29:05.704Z,7.48
2018-11-03T04:31:32.840Z,7.50
2018-11-03T04:34:00.005Z,7.46
2018-11-03T04:36:27.226Z,7.48
2018-11-03T04:38:54.492Z,7.48
2018-11-03T04:41:21.645Z,7.43
2018-11-03T04:43:49.079Z,7.45
2018-11-03T04:46:16.226Z,7.43
2018-11-03T04:48:43.389Z,7.42
2018-11-03T04:51:10.585Z,7.37
2018-11-03T04:53:37.824Z,7.39
2018-11-03T04:56:05.021Z,7.36
2018-11-03T04:58:32.338Z,7.32
2018-11-03T05:00:59.526Z,7.28
2018-11-03T05:03:26.963Z,7.38
2018-11-03T05:05:54.213Z,7.46
2018-11-03T05:08:21.341Z,7.47
2018-11-03T05:10:48.505Z,7.41
2018-11-03T05:13:15.702Z,7.39
2018-11-03T05:15:42.943Z,7.34
2018-11-03T05:18:10.068Z,7.30
2018-11-03T05:20:37.506Z,7.28
2018-11-03T05:23:04.701Z,7.39
2018-11-03T05:25:31.886Z,7.49
2018-11-03T05:27:59.161Z,7.43
2018-11-03T05:30:26.353Z,7.40
2018-11-03T05:32:53.607Z,7.36
2018-11-03T05:35:20.832Z,7.33
2018-11-03T05:37:47.964Z,7.30
2018-11-03T05:40:15.118Z,7.34
2018-11-03T05:42:42.404Z,7.27
2018-11-03T05:45:09.578Z,7.23
2018-11-03T05:47:36.740Z,7.35
2018-11-03T05:50:05.028Z,7.39
2018-11-03T05:52:32.214Z,7.39
2018-11-03T05:54:59.340Z,7.32
2018-11-03T05:57:26.568Z,7.31
2018-11-03T05:59:53.737Z,7.39
2018-11-03T06:02:20.910Z,7.34
2018-11-03T06:04:48.210Z,7.35
2018-11-03T06:07:15.342Z,7.27
2018-11-03T06:09:42.485Z,7.38
2018-11-03T06:12:09.676Z,7.30
2018-11-03T06:14:36.832Z,7.34
2018-11-03T06:17:04.074Z,7.37
2018-11-03T06:19:31.281Z,7.40
2018-11-03T06:21:58.439Z,7.39
2018-11-03T06:24:25.601Z,7.40
2018-11-03T06:26:52.885Z,7.45
2018-11-03T06:29:20.119Z,7.37
2018-11-03T06:31:47.288Z,7.37
2018-11-03T06:34:14.541Z,7.48
2018-11-03T06:36:41.688Z,7.48
2018-11-03T06:39:09.046Z,7.48
2018-11-03T06:41:36.336Z,7.49
2018-11-03T06:44:03.553Z,7.48
2018-11-03T06:46:30.760Z,7.47
2018-11-03T06:49:03.704Z,7.58
2018-11-03T06:51:31.248Z,7.59
2018-11-03T06:53:58.921Z,7.53
2018-11-03T06:56:26.108Z,7.58
2018-11-03T06:58:53.253Z,7.63
2018-11-03T07:01:20.418Z,7.59
2018-11-03T07:03:47.789Z,7.58
2018-11-03T07:06:14.955Z,7.71
2018-11-03T07:08:42.123Z,7.76
2018-11-03T07:11:09.321Z,7.79
2018-11-03T07:13:37.549Z,7.82
2018-11-03T07:16:05.335Z,7.88
2018-11-03T07:18:32.515Z,8.00
2018-11-03T07:20:59.656Z,8.06
2018-11-03T07:23:26.853Z,8.13
2018-11-03T07:25:54.062Z,8.16
2018-11-03T07:28:21.212Z,8.13
2018-11-03T07:30:48.484Z,8.31
2018-11-03T07:33:15.668Z,8.31
2018-11-03T07:35:42.821Z,8.34
2018-11-03T07:38:10.041Z,8.34
2018-11-03T07:40:37.298Z,8.41
2018-11-03T07:43:04.557Z,8.44
2018-11-03T07:45:31.709Z,8.47
2018-11-03T07:47:58.932Z,8.58
2018-11-03T07:50:26.076Z,8.68
2018-11-03T07:52:53.252Z,8.73
2018-11-03T07:55:20.601Z,8.75
2018-11-03T07:57:47.761Z,8.83
2018-11-03T08:00:14.941Z,8.87
2018-11-03T08:02:42.148Z,8.94
2018-11-03T08:05:10.740Z,8.89
2018-11-03T08:07:37.981Z,8.93
2018-11-03T08:10:06.113Z,9.00
2018-11-03T08:12:33.237Z,8.98
2018-11-03T08:15:00.366Z,9.01
2018-11-03T08:17:29.620Z,9.10
2018-11-03T08:19:56.800Z,9.22
2018-11-03T08:22:23.938Z,9.21
2018-11-03T08:24:51.232Z,9.32
2018-11-03T08:27:18.391Z,9.34
2018-11-03T08:29:45.604Z,9.36
2018-11-03T08:32:12.821Z,9.41
2018-11-03T08:34:39.981Z,9.54
2018-11-03T08:37:07.115Z,9.64
2018-11-03T08:39:34.295Z,9.72
2018-11-03T08:42:01.429Z,9.82
2018-11-03T08:44:28.565Z,9.95
2018-11-03T08:46:55.748Z,10.04
2018-11-03T08:49:22.879Z,10.02
2018-11-03T08:51:51.069Z,10.05
2018-11-03T08:54:18.273Z,10.11
2018-11-03T08:56:45.456Z,10.15
2018-11-03T08:59:12.613Z,10.16
2018-11-03T09:01:39.804Z,10.11
2018-11-03T09:04:06.936Z,10.10
2018-11-03T09:06:34.090Z,10.15
2018-11-03T09:09:01.281Z,10.22
2018-11-03T09:11:28.420Z,10.30
2018-11-03T09:13:55.551Z,10.36
2018-11-03T09:16:22.749Z,10.31
2018-11-03T09:18:49.901Z,10.66
2018-11-03T09:21:17.046Z,10.79
2018-11-03T09:23:44.233Z,10.67
2018-11-03T09:26:11.353Z,10.74
2018-11-03T09:28:38.506Z,10.80
2018-11-03T09:31:05.742Z,10.98
2018-11-03T09:33:32.885Z,11.03
2018-11-03T09:36:00.003Z,11.03
2018-11-03T09:38:27.179Z,10.90
2018-11-03T09:40:54.322Z,10.89
2018-11-03T09:43:21.505Z,11.03
2018-11-03T09:45:48.706Z,11.16
2018-11-03T09:48:15.832Z,11.17
2018-11-03T09:50:43.166Z,11.24
2018-11-03T09:53:10.170Z,11.19
2018-11-03T09:55:37.315Z,11.32
2018-11-03T09:58:04.588Z,11.39
2018-11-03T10:00:31.785Z,11.42
2018-11-03T10:02:58.953Z,11.14
2018-11-03T10:05:26.075Z,11.16
2018-11-03T10:07:53.268Z,11.21
2018-11-03T10:10:20.511Z,11.29
2018-11-03T10:12:47.650Z,11.38
2018-11-03T10:15:16.185Z,11.36
2018-11-03T10:17:43.881Z,11.11
2018-11-03T10:20:11.032Z,11.40
2018-11-03T10:22:38.480Z,11.44
2018-11-03T10:25:17.285Z,11.62
2018-11-03T10:27:44.915Z,11.79
2018-11-03T10:30:13.046Z,11.91
2018-11-03T10:32:40.722Z,11.98
2018-11-03T10:35:08.720Z,12.10
2018-11-03T10:37:36.141Z,12.09
2018-11-03T10:40:03.777Z,12.33
2018-11-03T10:42:30.999Z,12.50
2018-11-03T10:44:58.144Z,12.59
2018-11-03T10:47:25.302Z,12.58
2018-11-03T10:49:52.533Z,12.58
2018-11-03T10:52:19.739Z,12.63
2018-11-03T10:54:46.955Z,12.70
2018-11-03T10:57:14.148Z,12.37
2018-11-03T10:59:41.285Z,12.39
2018-11-03T11:02:14.254Z,12.23
2018-11-03T11:04:47.165Z,12.27
2018-11-03T11:07:20.017Z,12.19
2018-11-03T11:10:55.406Z,12.50
2018-11-03T11:13:24.339Z,12.48
2018-11-03T11:15:52.886Z,12.37
2018-11-03T11:18:20.050Z,12.43
2018-11-03T11:20:47.217Z,12.43
2018-11-03T11:23:14.403Z,12.55
2018-11-03T11:25:41.517Z,12.73
2018-11-03T11:28:08.791Z,12.79
2018-11-03T11:30:37.262Z,13.01
2018-11-03T11:33:06.028Z,13.09
2018-11-03T11:35:33.267Z,13.18
2018-11-03T11:38:00.504Z,13.03
2018-11-03T11:40:27.635Z,13.08
2018-11-03T11:42:54.866Z,12.73
2018-11-03T11:45:22.016Z,12.74
2018-11-03T11:47:49.187Z,12.68
2018-11-03T11:50:16.414Z,12.53
2018-11-03T11:52:43.576Z,12.39
2018-11-03T11:55:10.745Z,12.32
2018-11-03T11:57:37.957Z,12.54
2018-11-03T12:00:05.310Z,12.83
2018-11-03T12:02:32.550Z,12.87
2018-11-03T12:04:59.689Z,12.96
2018-11-03T12:07:26.841Z,12.99
2018-11-03T12:09:54.104Z,12.96
2018-11-03T12:12:21.262Z,12.90
2018-11-03T12:14:48.561Z,13.21
2018-11-03T12:17:15.688Z,12.69
2018-11-03T12:19:42.903Z,12.98
2018-11-03T12:22:10.054Z,12.94
2018-11-03T12:24:37.230Z,12.96
2018-11-03T12:27:04.629Z,13.01
2018-11-03T12:29:31.807Z,12.96
2018-11-03T12:31:58.976Z,12.60
2018-11-03T12:34:26.212Z,12.89
2018-11-03T12:36:53.373Z,12.86
2018-11-03T12:39:20.614Z,13.02
2018-11-03T12:41:47.838Z,12.95
2018-11-03T12:44:14.986Z,13.01
2018-11-03T12:46:42.136Z,12.62
2018-11-03T12:49:09.374Z,12.54
2018-11-03T12:51:36.547Z,12.61
2018-11-03T12:54:03.779Z,12.86
2018-11-03T12:56:31.029Z,12.82
2018-11-03T12:58:58.179Z,12.93
2018-11-03T13:01:25.385Z,12.92
2018-11-03T13:03:52.548Z,13.04
2018-11-03T13:06:19.763Z,12.92
2018-11-03T13:08:46.914Z,12.89
2018-11-03T13:11:14.129Z,12.85
2018-11-03T13:13:41.279Z,12.94
2018-11-03T13:16:08.433Z,12.99
2018-11-03T13:18:35.630Z,12.96
2018-11-03T13:21:02.789Z,12.69
2018-11-03T13:23:30.093Z,12.82
2018-11-03T13:25:57.301Z,12.85
2018-11-03T13:28:24.458Z,12.82
2018-11-03T13:30:51.604Z,12.85
2018-11-03T13:33:18.798Z,12.60
2018-11-03T13:35:45.961Z,12.57
2018-11-03T13:38:13.216Z,12.71
2018-11-03T13:40:40.510Z,12.51
2018-11-03T13:43:07.656Z,12.52
2018-11-03T13:45:34.810Z,12.56
2018-11-03T13:48:02.041Z,12.63
2018-11-03T13:50:29.214Z,12.61
2018-11-03T13:52:56.449Z,12.31
2018-11-03T13:55:23.663Z,12.44
2018-11-03T13:57:50.801Z,12.44
2018-11-03T14:00:18.612Z,12.49
2018-11-03T14:02:46.726Z,12.43
2018-11-03T14:05:13.952Z,12.41
2018-11-03T14:07:41.129Z,12.12
2018-11-03T14:10:10.764Z,12.26
2018-11-03T14:12:37.899Z,12.25
2018-11-03T14:15:05.897Z,12.23
2018-11-03T14:17:33.109Z,12.09
2018-11-03T14:20:00.279Z,11.97
2018-11-03T14:22:27.422Z,11.97
2018-11-03T14:24:54.637Z,11.86
2018-11-03T14:27:21.788Z,11.78
2018-11-03T14:29:48.925Z,11.81
2018-11-03T14:32:16.143Z,11.70
2018-11-03T14:34:43.292Z,11.73
2018-11-03T14:37:10.451Z,11.61
2018-11-03T14:39:37.723Z,11.54
2018-11-03T14:42:05.065Z,11.48
2018-11-03T14:44:32.240Z,11.36
2018-11-03T14:46:59.458Z,11.23
2018-11-03T14:49:26.604Z,11.12
2018-11-03T14:51:53.745Z,11.01
2018-11-03T14:54:20.973Z,10.93
2018-11-03T14:56:48.251Z,10.81
2018-11-03T14:59:15.345Z,10.74
2018-11-03T15:01:42.541Z,10.58
2018-11-03T15:04:09.777Z,10.53
2018-11-03T15:06:37.024Z,10.41
2018-11-03T15:09:05.928Z,10.24
2018-11-03T15:11:33.104Z,10.08
2018-11-03T15:14:00.373Z,9.95
2018-11-03T15:16:28.317Z,9.80
2018-11-03T15:18:55.493Z,9.67
2018-11-03T15:21:22.637Z,9.57
2018-11-03T15:23:49.838Z,9.45
2018-11-03T15:26:16.969Z,9.31
2018-11-03T15:28:44.124Z,9.18
2018-11-03T15:31:11.393Z,9.03
2018-11-03T15:33:38.687Z,8.94
2018-11-03T15:36:05.860Z,8.79
2018-11-03T15:38:33.060Z,8.69
2018-11-03T15:41:00.199Z,8.57
2018-11-03T15:43:27.362Z,8.47
2018-11-03T15:45:54.532Z,8.38
2018-11-03T15:48:21.693Z,8.25
2018-11-03T15:50:50.173Z,8.10
2018-11-03T15:53:17.427Z,7.98
2018-11-03T15:55:44.574Z,7.88
2018-11-03T15:58:11.708Z,7.75
2018-11-03T16:00:38.904Z,7.67
2018-11-03T16:03:06.094Z,7.53
2018-11-03T16:05:33.234Z,7.44
2018-11-03T16:08:00.525Z,7.34
2018-11-03T16:10:27.664Z,7.27
2018-11-03T16:12:54.836Z,7.20
2018-11-03T16:15:22.021Z,7.10
2018-11-03T16:17:49.147Z,7.02
2018-11-03T16:20:16.398Z,6.96
2018-11-03T16:22:43.875Z,6.89
2018-11-03T16:25:10.976Z,6.84
2018-11-03T16:27:38.831Z,6.77
2018-11-03T16:30:08.389Z,6.74
2018-11-03T16:32:35.716Z,6.69
2018-11-03T16:35:02.719Z,6.62
2018-11-03T16:37:29.995Z,6.57
2018-11-03T16:39:57.144Z,6.52
2018-11-03T16:42:24.279Z,6.51
2018-11-03T16:44:51.535Z,6.46
2018-11-03T16:47:18.684Z,6.45
2018-11-03T16:49:45.828Z,6.43
2018-11-03T16:52:13.022Z,6.42
2018-11-03T16:54:40.420Z,6.37
2018-11-03T16:57:07.594Z,6.33
2018-11-03T16:59:35.206Z,6.30
2018-11-03T17:02:02.808Z,6.24
2018-11-03T17:04:30.026Z,6.19
2018-11-03T17:06:57.683Z,6.13
2018-11-03T17:09:25.664Z,6.10
2018-11-03T17:11:53.524Z,6.08
2018-11-03T17:14:21.257Z,6.01
2018-11-03T17:16:49.111Z,5.95
2018-11-03T17:19:16.725Z,5.90
2018-11-03T17:21:44.774Z,5.82
2018-11-03T17:24:12.423Z,5.78
2018-11-03T17:26:41.873Z,5.77
2018-11-03T17:29:09.769Z,5.75
2018-11-03T17:31:37.671Z,5.71
2018-11-03T17:34:05.731Z,5.63
2018-11-03T17:36:33.748Z,5.60
2018-11-03T17:39:01.585Z,5.58
2018-11-03T17:41:30.253Z,5.52
2018-11-03T17:43:58.383Z,5.53
2018-11-03T17:46:25.549Z,5.48
2018-11-03T17:48:52.864Z,5.41
2018-11-03T17:51:20.354Z,5.34
2018-11-03T17:53:47.495Z,5.27
2018-11-03T17:56:15.128Z,5.29
2018-11-03T17:58:42.621Z,5.29
2018-11-03T18:01:10.181Z,5.29
2018-11-03T18:03:37.712Z,5.26
2018-11-03T18:06:05.536Z,5.22
2018-11-03T18:08:33.213Z,5.28
2018-11-03T18:11:01.018Z,5.27
2018-11-03T18:13:28.863Z,5.20
2018-11-03T18:15:56.056Z,5.18
2018-11-03T18:18:23.209Z,5.14
2018-11-03T18:20:50.460Z,5.12
2018-11-03T18:23:17.766Z,5.10
2018-11-03T18:25:44.899Z,5.06
2018-11-03T18:28:12.140Z,5.03
2018-11-03T18:30:39.337Z,5.04
2018-11-03T18:33:06.523Z,4.99
2018-11-03T18:35:33.864Z,5.01
2018-11-03T18:38:01.065Z,4.93
2018-11-03T18:40:28.165Z,4.93
2018-11-03T18:42:55.457Z,4.99
2018-11-03T18:45:22.588Z,4.99
2018-11-03T18:47:49.839Z,5.00
2018-11-03T18:50:17.086Z,4.97
2018-11-03T18:52:44.276Z,4.98
2018-11-03T18:55:12.322Z,4.95
2018-11-03T18:57:40.548Z,4.92
2018-11-03T19:00:08.785Z,4.88
2018-11-03T19:02:46.285Z,4.84
2018-11-03T19:05:13.437Z,4.80
2018-11-03T19:07:40.594Z,4.80
2018-11-03T19:10:08.307Z,4.78
2018-11-03T19:12:35.473Z,4.77
2018-11-03T19:15:02.676Z,4.77
2018-11-03T19:17:29.917Z,4.77
2018-11-03T19:19:57.037Z,4.83
2018-11-03T19:22:24.185Z,4.79
2018-11-03T19:24:51.459Z,4.74
2018-11-03T19:27:18.595Z,4.70
2018-11-03T19:29:45.898Z,4.63
2018-11-03T19:32:13.059Z,4.60
2018-11-03T19:34:40.165Z,4.60
2018-11-03T19:37:07.309Z,4.58
2018-11-03T19:39:34.583Z,4.56
2018-11-03T19:42:01.806Z,4.55
2018-11-03T19:44:28.977Z,4.57
2018-11-03T19:46:56.253Z,4.54
2018-11-03T19:49:23.397Z,4.53
2018-11-03T19:51:50.876Z,4.51
2018-11-03T19:54:18.037Z,4.51
2018-11-03T19:56:45.262Z,4.52
2018-11-03T19:59:12.417Z,4.55
2018-11-03T20:01:39.615Z,4.52
2018-11-03T20:04:06.853Z,4.51
2018-11-03T20:06:34.042Z,4.55
2018-11-03T20:09:01.324Z,4.58
2018-11-03T20:11:28.564Z,4.68
2018-11-03T20:13:55.887Z,4.64
2018-11-03T20:16:23.316Z,4.69
2018-11-03T20:18:50.528Z,4.73
2018-11-03T20:21:17.863Z,4.74
2018-11-03T20:23:45.205Z,4.83
2018-11-03T20:26:12.460Z,4.83
2018-11-03T20:28:39.624Z,4.85
2018-11-03T20:31:06.865Z,4.85
2018-11-03T20:33:34.024Z,4.88
2018-11-03T20:36:01.198Z,4.84
2018-11-03T20:38:28.380Z,4.85
2018-11-03T20:40:55.542Z,4.84
2018-11-03T20:43:22.676Z,4.86
2018-11-03T20:45:49.908Z,4.86
2018-11-03T20:48:17.057Z,4.84
2018-11-03T20:50:44.272Z,4.83
2018-11-03T20:53:11.513Z,4.82
2018-11-03T20:55:38.647Z,4.84
2018-11-03T20:58:05.828Z,4.86
2018-11-03T21:00:33.076Z,4.85
2018-11-03T21:03:00.228Z,4.83
2018-11-03T21:05:27.403Z,4.80
2018-11-03T21:07:54.754Z,4.72
2018-11-03T21:10:21.880Z,4.74
2018-11-03T21:12:49.046Z,4.77
2018-11-03T21:15:16.276Z,4.75
2018-11-03T21:17:43.432Z,4.70
2018-11-03T21:20:10.601Z,4.63
2018-11-03T21:22:37.825Z,4.58
2018-11-03T21:25:05.017Z,4.57
2018-11-03T21:27:32.240Z,4.59
2018-11-03T21:29:59.502Z,4.57
2018-11-03T21:32:26.742Z,4.53
2018-11-03T21:34:53.834Z,4.48
2018-11-03T21:37:21.087Z,4.53
2018-11-03T21:39:48.258Z,4.53
2018-11-03T21:42:15.421Z,4.56
2018-11-03T21:44:42.628Z,4.56
2018-11-03T21:47:09.855Z,4.56
2018-11-03T21:49:37.016Z,4.52
2018-11-03T21:52:04.637Z,4.55
2018-11-03T21:54:31.796Z,4.51
2018-11-03T21:56:58.982Z,4.53
2018-11-03T21:59:26.264Z,4.56
2018-11-03T22:01:53.428Z,4.51
2018-11-03T22:04:20.572Z,4.49
2018-11-03T22:06:47.777Z,4.47
2018-11-03T22:09:14.935Z,4.44
2018-11-03T22:11:42.097Z,4.44
2018-11-03T22:14:09.364Z,4.43
2018-11-03T22:16:36.526Z,4.40
2018-11-03T22:19:03.720Z,4.40
2018-11-03T22:21:31.256Z,4.36
2018-11-03T22:23:58.592Z,4.37
2018-11-03T22:26:25.806Z,4.31
2018-11-03T22:28:53.213Z,4.29
2018-11-03T22:31:20.366Z,4.27
2018-11-03T22:33:47.526Z,4.23
2018-11-03T22:36:14.739Z,4.19
2018-11-03T22:38:41.929Z,4.18
2018-11-03T22:41:09.160Z,4.24
2018-11-03T22:43:36.381Z,4.23
2018-11-03T22:46:03.806Z,4.22
2018-11-03T22:48:30.944Z,4.17
2018-11-03T22:50:58.145Z,4.13
2018-11-03T22:53:25.407Z,4.09
2018-11-03T22:55:52.572Z,4.07
2018-11-03T22:58:19.793Z,4.11
2018-11-03T23:00:52.638Z,4.07
2018-11-03T23:03:19.856Z,4.09
2018-11-03T23:05:47.036Z,4.06
2018-11-03T23:08:14.188Z,4.10
2018-11-03T23:10:41.419Z,4.06
2018-11-03T23:13:08.712Z,4.08
2018-11-03T23:15:35.841Z,4.13
2018-11-03T23:18:03.170Z,4.12
2018-11-03T23:20:31.061Z,4.21
2018-11-03T23:22:58.228Z,4.21
2018-11-03T23:25:25.794Z,4.21
2018-11-03T23:27:53.077Z,4.30
2018-11-03T23:30:20.368Z,4.38
2018-11-03T23:32:47.738Z,4.41
2018-11-03T23:35:14.964Z,4.43
2018-11-03T23:37:43.032Z,4.51
2018-11-03T23:40:10.804Z,4.66
2018-11-03T23:42:37.971Z,4.77
2018-11-03T23:45:06.001Z,4.95
2018-11-03T23:47:33.200Z,5.03
2018-11-03T23:50:00.352Z,5.05
2018-11-03T23:52:33.064Z,5.09
2018-11-03T23:55:01.085Z,5.20
2018-11-03T23:57:28.667Z,5.24
2018-11-03T23:59:55.930Z,5.29
